SLT weather

Harriet Alexander Field
Salida, Colorado, United States

Public forecast

Using degrees Fahrenheit for public forecast. Weather courtesy of forecast.io.

Current aviation weather report (METAR) for Harriet Alexander Field

Retrieved 2019/10/17 09:35 UTC (2 minutes ago):

KANK 170935Z AUTO 34010KT 10SM CLR 06/M14 A3025 RMK AO1 T00611138

Closest aviation forecast (TAF) to Harriet Alexander Field

Closest forecast is Gunnison Crested Butte Regional Airport, 41.5 nm (76.9 km) W. Retrieved 2019/10/17 06:22 UTC (3 hours ago):

TAF KGUC 170520Z 1706/1806 VRB04KT P6SM FEW250 FM171800 22007KT P6SM SCT250 FM180200 VRB04KT P6SM SCT200